Tiempo atmosférico en la estación meteorológica de Sevilla Aeropuerto, Sevilla (34 m.)



Fecha
DESCASC
Temp. máxima en grados centígrados (hora)
DESCASC
Temp. mínima en grados centígrados (hora)
DESCASC
Temp. media en grados centígrados
DESCASC
Racha de viento máxima en m/sg (hora)
DESCASC
Velocidad máxima media en intervalos de 10 minutos(hora)
DESCASC
Precipitaciones diarias en mm
DESCASC
Precipitaciones de 00:00 a 06:00 en mm
DESCASC
Precipitaciones de 06:00 a 12:00 en mm
DESCASC
Precipitaciones de 12:00 a 18:00 en mm
DESCASC
Precipitaciones de 18:00 a 24:00 en mm
DESCASC
15-11-2018 21.8 (14:40) 12.7 (09:00) 17.2 5.83 (02:00) 4.17 (02:10) 0 0 0 0 0
14-11-2018 22.3 (15:30) 13.7 (06:40) 18 9.17 (11:50) 6.67 (11:50) 0 0 0 0 0
13-11-2018 21.9 (16:40) 12.4 (09:20) 17.1 8.33 (11:50) 6.11 (11:50) 0 0 0 0 0
12-11-2018 17.1 (16:20) 13.8 (23:40) 15.5 7.78 (16:40) 6.11 (16:40) 31.8 11.4 19.8 0.6 0
11-11-2018 23.1 (15:20) 15.4 (00:00) 19.3 9.72 (18:20) 5.83 (18:00) 0.1 0.1 0 0 0
10-11-2018 18.5 (17:00) 10 (00:00) 14.3 6.67 (12:40) 4.44 (14:10) 0 0 0 0 0
09-11-2018 18.9 (16:50) 7.8 (00:00) 13.3 7.22 (17:40) 4.72 (17:00) 0 0 0 0 0
08-11-2018 18 (17:20) 11.9 (00:00) 14.9 11.39 (21:40) 7.5 (21:40) 22.2 0 6.9 15.3 0
07-11-2018 18.9 (16:40) 13 (00:00) 15.9 7.22 (11:20) 5.56 (12:10) 2.4 0.1 1.3 1 0
06-11-2018 18.3 (14:40) 6.5 (00:00) 12.4 7.78 (14:00) 3.61 (20:00) 0 0 0 0 0
05-11-2018 18.6 (16:00) 10.8 (00:00) 14.7 13.89 (04:00) 9.72 (04:00) 7.1 7.1 0 0 0
04-11-2018 16.2 (15:50) 9.6 (00:00) 12.9 5.83 (21:00) 3.89 (21:40) 0 0 0 0 0
03-11-2018 20.7 (17:40) 10.7 (00:00) 15.7 6.67 (11:20) 4.44 (11:20) 0 0 0 0 0
02-11-2018 20.3 (15:10) 8.7 (00:00) 14.5 5.83 (14:40) 3.61 (16:00) 0 0 0 0 0
01-11-2018 19.7 (16:30) 6.4 (00:00) 13.1 5 (16:50) 3.89 (17:20) 0 0 0 0 0
31-10-2018 14.4 (13:20) 8.5 (00:00) 11.4 9.17 (19:10) 6.39 (13:40) 10.4 0 0 9.3 1.1
30-10-2018 17.1 (16:50) 10.1 (00:00) 13.6 22.78 (08:40) 10.56 (08:40) 23 6 15.3 1.7 0
29-10-2018 18 (15:00) 6 (00:00) 12 13.89 (16:00) 10 (16:00) 0 0 0 0 0
28-10-2018 16.6 (16:30) 8.1 (00:00) 12.4 11.67 (16:30) 8.06 (16:50) 0 0 0 0 0
27-10-2018 21.9 (14:10) 14.3 (00:00) 18.1 12.5 (16:40) 9.17 (16:20) 0.2 0.2 0 0 0
26-10-2018 18.4 (00:00) 15.9 (00:00) 17.1 7.22 (15:40) 5.28 (15:40) 10.7 0.1 2.4 8.1 0.1
25-10-2018 27.7 (16:30) 14.6 (00:00) 21.2 6.11 (11:30) 4.17 (10:20) 0 0 0 0 0
24-10-2018 26.8 (17:00) 16 (00:00) 21.4 6.67 (13:30) 4.72 (13:20) -- 0 -- 0 0
23-10-2018 25.4 (14:40) 16.6 (00:00) 21 6.67 (16:10) 3.06 (07:50) 0 0 0 0 0
22-10-2018 26.1 (16:40) 15.5 (00:00) 20.8 6.11 (13:30) 4.44 (11:00) 0 0 0 0 0
21-10-2018 23.2 (17:50) 15.6 (00:00) 19.4 10.28 (11:50) 7.5 (12:40) 4.5 0.3 1.4 2.8 0
20-10-2018 17.6 (14:10) 12.7 (00:00) 15.2 9.72 (20:50) 6.94 (19:40) 11.8 0 0 5.1 6.7
19-10-2018 22.9 (17:00) 12.8 (00:00) 17.8 9.17 (13:30) 6.11 (13:30) 0 0 0 0 0
18-10-2018 18.5 (00:00) 13.7 (00:00) 16.1 15 (08:00) 11.11 (08:00) 10.6 0 8 2.6 0

Gráficas

Temp. máximas Temp. mínimas Temp. medias Precipitaciones Rachas de viento máximas Velocidades máximas media en intervalos de 10 minutos

Datos horarios

Fecha y hora oficial Temperatura (ºC) Velocidad del viento (km/h) Dirección del viento Racha (km/h) Dirección de racha Precipitación (mm) Presión (hPa) Tendencia (hPa) Humedad (%)
2018-11-16 23:00:00 14.1 11 Sudeste 15 Sudeste 0 1010.8 0 90
2018-11-16 22:00:00 13.8 5 Este 9 Norte 0 1010.8 0.2 92
2018-11-16 21:00:00 15.1 9 Norte 11 Norte 0 1010.8 0.1 86
2018-11-16 20:00:00 16.6 2 Nordeste 13 Este 0 1010.8 0.2 81
2018-11-16 19:00:00 17.5 3 Nordeste 11 Este 0 1010.6 0 76
2018-11-16 18:00:00 19.9 10 Este 21 Este 0 1010.7 0 66
2018-11-16 17:00:00 21.9 11 Este 21 Sudeste 0 1010.6 -0.4 55
2018-11-16 16:00:00 22.6 11 Sudeste 21 Este 0 1010.6 -1.2 49
2018-11-16 15:00:00 21.7 11 Este 22 Este 0 1010.7 -2 56
2018-11-16 14:00:00 21.2 11 Este 24 Este 0 1011 -1.9 58
2018-11-16 13:00:00 21.1 17 Este 26 Sudeste 0 1011.8 -1.1 58
2018-11-16 12:00:00 19.8 14 Este 22 Nordeste 0 1012.7 0.1 69
2018-11-16 11:00:00 18.5 13 Nordeste 21 Nordeste 0 1012.9 0.6 73
2018-11-16 10:00:00 16 12 Nordeste 18 Nordeste 0 1012.9 0.8 82
2018-11-16 09:00:00 13.6 14 Este 22 Este 0 1012.6 0.5 91
2018-11-16 08:00:00 13.3 15 Nordeste 26 Este 0 1012.3 0.4 91
2018-11-16 07:00:00 13.6 16 Nordeste 22 Nordeste 0 1012.1 -0.1 90
2018-11-16 06:00:00 13.4 14 Nordeste 21 Este 0 1012.1 -0.3 91
2018-11-16 05:00:00 13.5 13 Este 21 Nordeste 0 1011.9 -0.8 91
2018-11-16 04:00:00 13.4 15 Nordeste 21 Nordeste 0 1012.2 -0.8 92
2018-11-16 03:00:00 13.4 15 Nordeste 21 Nordeste 0 1012.4 -0.7 94
2018-11-16 02:00:00 13.4 12 Nordeste 18 Norte 0 1012.7 -0.4 95
2018-11-16 01:00:00 13.5 7 Nordeste 13 Nordeste 0 1013 0.6 94
2018-11-16 00:00:00 13.9 9 Nordeste 15 Nordeste 0 1013.1 1.3 94
2018-11-15 23:00:00 14.2 3 Norte 9 Norte 0 1013.1 1.4 91
2018-11-15 22:00:00 14.8 4 Nordeste 9 Sudeste 0 1012.4 1.1 90
2018-11-15 21:00:00 14.9 4 Este 11 Este 0 1011.8 0.6 90
2018-11-15 20:00:00 16.2 8 Sudeste 9 Sudeste 0 1011.7 0.8 85
2018-11-15 19:00:00 18.4 0 Calma 8 Nordeste 0 1011.3 0.4 74
2018-11-15 18:00:00 20 3 Nordeste 15 Nordeste 0 1011.2 0.2 66
2018-11-15 17:00:00 20.2 8 Norte 21 Norte 0 1010.9 -0.6 64
2018-11-15 16:00:00 20.9 5 Noroeste 15 Norte 0 1010.9 -0.8 58
2018-11-15 15:00:00 21.6 4 Norte 18 Oeste 0 1011 -1.5 54
2018-11-15 14:00:00 20.9 8 Noroeste 11 Norte 0 1011.5 -0.8 60
2018-11-15 13:00:00 19.3 8 Nordeste 13 Nordeste 0 1011.7 -0.3 71
2018-11-15 12:00:00 16.7 10 Nordeste 17 Nordeste 0 1012.5 1.2 81
2018-11-15 11:00:00 16.5 7 Nordeste 13 Nordeste 0 1012.3 1.7 79
2018-11-15 10:00:00 14.8 5 Norte 9 Noroeste 0 1012 1.9 89
2018-11-15 09:00:00 12.8 3 Noroeste 9 Nordeste 0 1011.3 1.5 92
2018-11-15 08:00:00 13.1 0 Calma 18 Nordeste 0 1010.6 0.9 92
2018-11-15 07:00:00 13 10 Nordeste 15 Nordeste 0 1010.1 0.2 94
2018-11-15 06:00:00 13.2 8 Nordeste 18 Nordeste 0 1009.8 0.1 94
2018-11-15 05:00:00 13.5 9 Norte 15 Nordeste 0 1009.7 -0.2 91
2018-11-15 04:00:00 14.2 13 Nordeste 21 Este 0 1009.9 -0.8 90
2018-11-15 03:00:00 15.3 15 Este 21 Este 0 1009.7 -1.4 86
2018-11-15 02:00:00 15.4 15 Este 21 Este 0 1009.9 -1.2 84
2018-11-15 01:00:00 15.8 4 Nordeste 13 Norte 0 1010.7 -0.8 83
2018-11-15 00:00:00 17.3 7 Este 22 Este 0 1011.1 -0.5 74
2018-11-14 23:00:00 18.1 17 Este 26 Este 0 1011.1 -0.3 70
2018-11-14 22:00:00 16.6 14 Nordeste 18 Nordeste 0 1011.5 0 82
2018-11-14 21:00:00 16.9 10 Este 18 Este 0 1011.6 0.3 82
2018-11-14 20:00:00 16.6 11 Este 13 Este 0 1011.4 -0.1 85
2018-11-14 19:00:00 18.2 12 Este 15 Este 0 1011.5 0.1 79
2018-11-14 18:00:00 20.9 11 Nordeste 18 Nordeste 0 1011.3 -0.4 66
2018-11-14 17:00:00 21.4 12 Nordeste 24 Nordeste 0 1011.5 -1.1 66
2018-11-14 16:00:00 21.9 18 Nordeste 30 Nordeste 0 1011.4 -2 60
2018-11-14 15:00:00 22.1 19 Nordeste 30 Nordeste 0 1011.7 -2.5 60
2018-11-14 14:00:00 21.4 20 Nordeste 30 Nordeste 0 1012.6 -2.3 62
2018-11-14 13:00:00 20.2 20 Nordeste 32 Nordeste 0 1013.4 -1.8 66
2018-11-14 12:00:00 18.4 23 Nordeste 33 Nordeste 0 1014.2 -1 70
2018-11-14 11:00:00 17.6 18 Nordeste 30 Este 0 1014.9 -0.1 71
2018-11-14 10:00:00 15.8 19 Este 26 Este 0 1015.2 0.3 79
2018-11-14 09:00:00 14.7 15 Este 26 Este 0 1015.2 -0.2 84
2018-11-14 08:00:00 14.2 7 Nordeste 18 Nordeste 0 1015 -0.3 87
2018-11-14 07:00:00 14 16 Nordeste 21 Nordeste 0 1014.9 -0.9 90
2018-11-14 06:00:00 13.8 12 Nordeste 24 Este 0 1015.4 -0.9 91
2018-11-14 05:00:00 14.6 18 Este 28 Este 0 1015.3 -1.2 88
2018-11-14 04:00:00 14.9 17 Nordeste 22 Nordeste 0 1015.8 -1.2 88
2018-11-14 03:00:00 15.5 10 Este 18 Este 0 1016.3 -0.7 87
2018-11-14 02:00:00 15.9 15 Este 22 Este 0 1016.5 -0.4 85
2018-11-14 01:00:00 15.6 12 Nordeste 17 Este 0 1017 0.2 87
2018-11-14 00:00:00 15.3 7 Este 13 Nordeste 0 1017 0 89
2018-11-13 23:00:00 15.2 7 Nordeste 18 Norte 0 1016.9 0.1 92
2018-11-13 22:00:00 15.6 11 Norte 17 Este 0 1016.8 0.2 85
2018-11-13 21:00:00 16.4 12 Este 22 Este 0 1017 0.9 80
2018-11-13 20:00:00 17.6 8 Este 24 Este 0 1016.8 1.1 74
2018-11-13 19:00:00 18.2 9 Nordeste 15 Nordeste 0 1016.6 0.9 77
2018-11-13 18:00:00 19.6 10 Este 21 Nordeste 0 1016.1 0.3 72
2018-11-13 17:00:00 21.5 13 Nordeste 21 Nordeste 0 1015.7 -0.6 63
2018-11-13 16:00:00 21.3 10 Nordeste 17 Nordeste 0 1015.7 -1.1 61
2018-11-13 15:00:00 20.2 10 Nordeste 18 Nordeste 0 1015.8 -1.6 67
2018-11-13 14:00:00 19.5 12 Nordeste 21 Este 0 1016.3 -1.4 68
2018-11-13 13:00:00 17.4 17 Nordeste 30 Nordeste 0 1016.8 -0.9 74
2018-11-13 12:00:00 16.9 21 Nordeste 30 Nordeste 0 1017.4 0.1 76
2018-11-13 11:00:00 15.3 15 Nordeste 21 Nordeste 0 1017.7 1.1 87
2018-11-13 10:00:00 13.4 14 Nordeste 21 Nordeste 0 1017.7 1.7 96
2018-11-13 09:00:00 12.5 13 Este 21 Este 0 1017.3 1.3 95
2018-11-13 08:00:00 12.9 11 Norte 24 Nordeste 0 1016.6 0.6 95
2018-11-13 07:00:00 13.2 14 Nordeste 22 Nordeste 0 1016 0.1 97
2018-11-13 06:00:00 13.1 7 Nordeste 13 Nordeste 0 1016 0 97
2018-11-13 05:00:00 13.4 4 Norte 5 Noroeste 0 1016 0.1 96
2018-11-13 04:00:00 13.5 3 Nordeste 8 Este 0 1015.9 -0.2 96
2018-11-13 03:00:00 13.7 5 Este 9 Nordeste 0 1016 0.3 96
2018-11-13 02:00:00 14 6 Norte 9 Nordeste 0 1015.9 0.5 96
2018-11-13 01:00:00 14 4 Nordeste -- -- 0 1016.1 1.1 95
2018-11-13 00:00:00 13.9 0 Calma 8 Sur 0 1015.7 1.4 95
2018-11-12 23:00:00 14.7 0 Calma 9 Oeste 0 1015.4 1.5 91
2018-11-12 22:00:00 14.8 6 Sudoeste 11 Este 0 1015 1.3 90
2018-11-12 21:00:00 14.8 4 Nordeste 17 Norte 0 1014.3 1.2 89
2018-11-12 20:00:00 14.7 8 Norte 15 Noroeste 0 1013.9 1.2 91
2018-11-12 19:00:00 15.1 10 Noroeste 17 Norte 0 1013.7 2.3 90
2018-11-12 18:00:00 15.7 14 Noroeste 26 Oeste 0 1013.1 1.1 89
2018-11-12 17:00:00 16 18 Noroeste 28 Oeste 0 1012.7 1.1 89
2018-11-12 16:00:00 16.4 8 Norte 13 Norte 0 1011.4 -0.7 87
2018-11-12 15:00:00 16.5 0 Calma 13 Sudeste 0.5 1012 -1.1 85
2018-11-12 14:00:00 16.4 7 Sudeste 9 Sudeste 0 1011.6 -0.2 83
2018-11-12 13:00:00 15.9 5 Sudeste 18 Sur 0.1 1012.1 -0.1 88
2018-11-12 12:00:00 15.4 12 Sur 21 Sudeste 0 1013.1 2 92
2018-11-12 11:00:00 14.4 15 Este 21 Sudeste 0.3 1011.8 1.7 94
2018-11-12 10:00:00 14.4 12 Sudeste 17 Sudeste 0.1 1012.2 2.6 93
2018-11-12 09:00:00 14.1 10 Este 15 Este 0.7 1011.1 2.2 96
2018-11-12 08:00:00 14 5 Este 17 Sudeste 9.3 1010.1 1.2 95
2018-11-12 07:00:00 14.1 10 Sudeste 18 Sur 9.4 1009.6 1 95
2018-11-12 06:00:00 14.3 8 Sudeste 15 Sudeste 5.7 1008.9 -0.6 94
2018-11-12 05:00:00 15.2 7 Sur 22 Sur 3.3 1008.9 -0.8 93
2018-11-12 04:00:00 15.2 15 Sur 24 Sur 2.3 1008.6 -1.3 95
2018-11-12 03:00:00 15.5 5 Sur 13 Sur 0.1 1009.5 -0.1 93
2018-11-12 02:00:00 15.4 5 Sur 18 Sudeste 0 1009.7 0.1 93
2018-11-12 01:00:00 15.2 0 Calma 11 Oeste 0 1009.9 0.6 92
2018-11-12 00:00:00 15.4 7 Sudoeste 17 Sur 0 1009.6 0.2 91
2018-11-11 23:00:00 15.9 11 Sur 21 Sur 0 1009.6 0.3 90
2018-11-11 22:00:00 16.1 10 Sur 17 Sur 0 1009.3 0.4 88
2018-11-11 21:00:00 16.5 9 Sudoeste 18 Sudoeste 0 1009.4 0.9 86
2018-11-11 20:00:00 17.5 12 Sudoeste 26 Sudoeste 0 1009.3 1 82
2018-11-11 19:00:00 18.1 15 Sudoeste 35 Sudoeste 0 1008.9 0.2 79
2018-11-11 18:00:00 19.6 21 Sudoeste 32 Sudoeste 0 1008.5 -0.5 74
2018-11-11 17:00:00 21.8 16 Sudoeste 24 Sudoeste 0 1008.3 -1.4 61
2018-11-11 16:00:00 22.7 13 Sudoeste 18 Sur 0 1008.7 -2.4 57
2018-11-11 15:00:00 21.6 10 Sur 17 Sur 0 1009 -3.3 62
2018-11-11 14:00:00 21.5 9 Sudoeste 21 Sudoeste 0 1009.7 -3.3 64
2018-11-11 13:00:00 20.9 11 Sur 22 Sur 0 1011.1 -2.4 69
2018-11-11 12:00:00 20.5 10 Sur 17 Sur 0 1012.3 -1 73
2018-11-11 11:00:00 18.2 10 Sur 17 Sur 0 1013 -0.1 86
2018-11-11 10:00:00 17 13 Sur 18 Sur 0 1013.5 0.3 92
2018-11-11 09:00:00 16 9 Sur 13 Sur 0 1013.3 0.1 95
2018-11-11 08:00:00 15.9 4 Sudeste 11 Sur 0 1013.1 0 95
2018-11-11 07:00:00 16.1 6 Sur 17 Sur 0 1013.2 -0.4 94
2018-11-11 06:00:00 16 9 Sur 17 Sur 0 1013.2 -0.6 94
2018-11-11 05:00:00 16.1 11 Sur 17 Sudoeste 0.1 1013.1 -1 94
2018-11-11 04:00:00 16.1 9 Sur 13 Sur 0 1013.6 -1.1 92
2018-11-11 03:00:00 16.2 8 Sur 17 Sur 0 1013.8 -1.2 91
2018-11-11 02:00:00 16.7 12 Sur 17 Sur 0 1014.1 -1.1 90
2018-11-11 01:00:00 16.7 10 Sur 18 Sudoeste 0 1014.7 -0.6 90
2018-11-11 00:00:00 16.9 13 Sur 24 Sur 0 1015 0 88
2018-11-10 23:00:00 17 10 Sur 18 Sur 0 1015.2 0.2 86
2018-11-10 22:00:00 17.1 10 Sur 17 Sur 0 1015.3 0.5 86
2018-11-10 21:00:00 17.3 9 Sur 18 Sudoeste 0 1015 0.3 84
2018-11-10 20:00:00 17.4 9 Sudoeste 18 Sudoeste 0 1015 0.3 83
2018-11-10 19:00:00 17.6 10 Sudoeste 18 Sudoeste 0 1014.8 0 81
2018-11-10 18:00:00 18.1 12 Sur 24 Sudoeste 0 1014.7 -0.4 80
2018-11-10 17:00:00 18.4 15 Sur 24 Sur 0 1014.7 -0.7 77
2018-11-10 16:00:00 18.1 9 Sudoeste 18 Sudoeste 0 1014.8 -1.6 76
2018-11-10 15:00:00 17.7 10 Sudoeste 24 Sudoeste 0 1015.1 -2.1 79
2018-11-10 14:00:00 17.8 16 Sudoeste 24 Sudoeste 0 1015.4 -2.3 77
2018-11-10 13:00:00 16.9 10 Sudoeste 24 Sudoeste 0 1016.4 -1.4 80
2018-11-10 12:00:00 15.4 9 Sur 13 Sur 0 1017.2 -0.2 81
2018-11-10 11:00:00 14 0 Calma 8 Nordeste 0 1017.7 0.9 84
2018-11-10 10:00:00 13.1 2 Norte 9 Noroeste 0 1017.8 0.7 86
2018-11-10 09:00:00 12.5 6 Oeste 9 Oeste 0 1017.4 0.4 88
2018-11-10 08:00:00 12.1 7 Sur 13 Sur 0 1016.8 -0.7 90
2018-11-10 07:00:00 11.8 0 Calma 8 Sur 0 1017.1 -0.5 91
2018-11-10 06:00:00 11.7 4 Sur 8 Sur 0 1017 -0.8 93
2018-11-10 05:00:00 11.4 0 Calma 4 Sur 0 1017.5 -1 94
2018-11-10 04:00:00 10.6 0 Calma 8 Sudeste 0 1017.6 -1 95
2018-11-10 03:00:00 10.2 0 Calma 8 Sudeste 0 1017.8 -1.3 94
2018-11-10 02:00:00 10.7 0 Calma 4 Sudeste 0 1018.5 -0.7 93
2018-11-10 01:00:00 10.6 4 Sudeste 11 Sur 0 1018.6 -0.9 91
2018-11-10 00:00:00 11.3 6 Sur 9 Sur 0 1019.1 -0.4 89
2018-11-09 23:00:00 12.4 8 Sur 11 Sur 0 1019.2 -0.3 84
2018-11-09 22:00:00 12.6 10 Sur 13 Sur 0 1019.5 0.6 83
2018-11-09 21:00:00 14.4 10 Oeste 22 Oeste 0 1019.5 0.8 73
2018-11-09 20:00:00 15 16 Oeste 24 Oeste 0 1019.5 1.1 69
2018-11-09 19:00:00 15.8 13 Oeste 21 Oeste 0 1018.9 0.3 60
2018-11-09 18:00:00 17.4 15 Oeste 26 Oeste 0 1018.7 -0.1 54
2018-11-09 17:00:00 18.8 17 Oeste 24 Oeste 0 1018.4 -1.4 47
2018-11-09 16:00:00 18.6 11 Oeste 21 Noroeste 0 1018.6 -2.2 49
2018-11-09 15:00:00 18.4 8 Sudoeste 17 Sudoeste 0 1018.8 -2.4 48
2018-11-09 14:00:00 17.7 10 Sudoeste 18 Oeste 0 1019.8 -1.5 51
2018-11-09 13:00:00 16.7 12 Noroeste 22 Noroeste 0 1020.8 -0.6 55
2018-11-09 12:00:00 15.7 5 Oeste 9 Noroeste 0 1021.2 0.5 66
2018-11-09 11:00:00 14.1 4 Sur 8 Sudoeste 0 1021.3 1.4 75
2018-11-09 10:00:00 11.8 2 Oeste 9 Norte 0 1021.4 1.8 84
2018-11-09 09:00:00 9.5 2 Norte 8 Norte 0 1020.7 1.4 96
2018-11-09 08:00:00 7.8 0 Calma 9 Norte 0 1019.9 1.3 96
2018-11-09 07:00:00 8.1 4 Este 5 Este 0 1019.6 1.2 95
2018-11-09 06:00:00 8.3 0 Calma 8 Nordeste 0 1019.3 1.2 94
2018-11-09 05:00:00 9.6 4 Norte 11 Sudoeste 0 1018.6 0.7 93
2018-11-09 04:00:00 10.7 9 Sudoeste 13 Sudoeste 0 1018.4 0.7 90
2018-11-09 03:00:00 11.3 8 Sudoeste 13 Sudoeste 0 1018.1 0.9 87
2018-11-09 02:00:00 10.7 4 Sur 11 Oeste 0 1017.9 1.2 88
2018-11-09 01:00:00 11.7 5 Oeste 15 Oeste 0 1017.7 2.1 85
2018-11-09 00:00:00 12 11 Oeste 17 Noroeste 0 1017.2 2.7 84
2018-11-08 23:00:00 14 11 Oeste 22 Noroeste 0 1016.7 3 74
2018-11-08 22:00:00 14.9 18 Noroeste 41 Oeste 0 1015.6 2.5 78
2018-11-08 21:00:00 15.7 18 Oeste 32 Sudoeste 0 1014.5 2.1 85
2018-11-08 20:00:00 16.2 20 Sudoeste 32 Sudoeste 0 1013.7 1.5 84
2018-11-08 19:00:00 16.4 20 Sudoeste 28 Sudoeste 0 1013.1 1.2 82
2018-11-08 18:00:00 17.6 21 Sudoeste 30 Sudoeste 0 1012.4 0.6 77
2018-11-08 17:00:00 17.6 20 Sudoeste 30 Sudoeste 0 1012.2 -0.1 86
2018-11-08 16:00:00 17.3 11 Sudoeste 21 Sudoeste 0 1011.9 -1.1 93
2018-11-08 15:00:00 16.7 8 Sur 15 Sudoeste 0.5 1011.8 -1.9 96
2018-11-08 14:00:00 16.1 12 Sudoeste 22 Sudoeste 9.5 1012.3 -2 97
2018-11-08 13:00:00 15.3 9 Norte 17 Noroeste 5.3 1013 -1.6 97
2018-11-08 12:00:00 15.7 6 Sur 9 Sudeste 1.9 1013.7 -0.5 97
2018-11-08 11:00:00 14.8 6 Este 13 Nordeste 3.1 1014.3 0.3 97
2018-11-08 10:00:00 14.5 7 Nordeste 11 Nordeste 1.4 1014.6 0.6 96
2018-11-08 09:00:00 14.5 5 Este 11 Este 0.5 1014.2 0.2 94
2018-11-08 08:00:00 14.6 5 Este 11 Este 0 1014 -0.2 93
2018-11-08 07:00:00 14.5 9 Este 17 Este 0 1014 -0.6 94
2018-11-08 06:00:00 14.6 10 Este 13 Este 0 1014 -0.9 96
2018-11-08 05:00:00 14.4 8 Este 11 Sudeste 0 1014.2 -1 96
2018-11-08 04:00:00 14.4 4 Sudeste 9 Sudeste 0 1014.6 -1 96
2018-11-08 03:00:00 14.5 8 Sudeste 9 Sur 0 1014.9 -1 96
2018-11-08 02:00:00 14.7 8 Norte 13 Norte 0 1015.2 -0.5 97
2018-11-08 01:00:00 14.6 3 Este 8 Sudeste 0 1015.6 -0.1 96
2018-11-08 00:00:00 14.7 5 Sudeste 9 Sudeste 0 1015.9 0.6 96
2018-11-07 23:00:00 14.5 5 Sudeste 8 Sudeste 0 1015.7 0.4 96
2018-11-07 22:00:00 14.5 3 Oeste 15 Sudoeste 0 1015.7 1 93
2018-11-07 21:00:00 15.2 10 Sur 17 Sur 0 1015.3 1.1 92
2018-11-07 20:00:00 15.7 10 Sur 15 Sur 0 1015.3 1.3 91
2018-11-07 19:00:00 16.4 8 Sur 18 Sur 0 1014.7 0.8 87
2018-11-07 18:00:00 17.9 9 Sur 18 Sur 0 1014.2 0.2 81
2018-11-07 17:00:00 18.8 10 Sudoeste 17 Sudoeste 0 1014 0 77
2018-11-07 16:00:00 18 4 Norte 17 Oeste 0 1013.9 -0.3 82
2018-11-07 15:00:00 18.1 11 Sudoeste 18 Oeste 0 1014 -0.1 83
2018-11-07 14:00:00 16.6 8 Sudoeste 21 Oeste 0.1 1014 0.1 91
2018-11-07 13:00:00 16.2 16 Oeste 26 Oeste 0.9 1014.2 0.7 94
2018-11-07 12:00:00 15.6 16 Sudoeste 26 Sudoeste 1.1 1014.1 0.8 95
2018-11-07 11:00:00 15.6 13 Sudoeste 21 Sudoeste 0 1013.9 1.2 89
2018-11-07 10:00:00 14.7 8 Sur 13 Sur 0 1013.5 1.4 91
2018-11-07 09:00:00 14.1 7 Sudoeste 13 Sudoeste 0.1 1013.3 1.1 90
2018-11-07 08:00:00 13.9 8 Sur 17 Sur 0.1 1012.7 0.8 88
2018-11-07 07:00:00 13.3 5 Sur 13 Sur 0 1012.1 -0.2 90
2018-11-07 06:00:00 13.3 6 Sur 13 Sur 0 1012.2 -0.2 91
2018-11-07 05:00:00 13.3 9 Sur 13 Sur 0.1 1011.9 0 92
2018-11-07 04:00:00 13.1 7 Norte 17 Sudoeste 0 1012.3 -0.1 92
2018-11-07 03:00:00 14.2 10 Sur 21 Sur 0 1012.4 -0.8 81
2018-11-07 02:00:00 13.9 10 Sur 24 Sur 0 1011.9 -2.1 83
2018-11-07 01:00:00 13.3 12 Sur 21 Sur 0 1012.4 -1.1 84
2018-11-07 00:00:00 14.4 10 Sur 17 Sur 0 1013.2 0.1 80
2018-11-06 23:00:00 14.8 8 Sudoeste 18 Sudoeste 0 1014 0.9 79
2018-11-06 22:00:00 14.1 10 Sur 17 Sur 0 1013.5 0.6 81
2018-11-06 21:00:00 14.2 7 Sudoeste 17 Sudoeste 0 1013.1 0.6 77
2018-11-06 20:00:00 15.4 13 Sudoeste 18 Sudoeste 0 1013.1 0.6 70
2018-11-06 19:00:00 16 12 Sudoeste 17 Sudoeste 0 1012.9 0.1 62
2018-11-06 18:00:00 17.4 6 Sur 21 Sur 0 1012.5 -0.8 56
2018-11-06 17:00:00 18.3 12 Sur 21 Sur 0 1012.5 -1.3 54
2018-11-06 16:00:00 17.4 8 Sudoeste 17 Sudoeste 0 1012.8 -1.8 57
2018-11-06 15:00:00 17.3 11 Sur 24 Oeste 0 1013.3 -1.8 56
2018-11-06 14:00:00 17.6 11 Sur 28 Oeste 0 1013.8 -1.6 57
2018-11-06 13:00:00 16.8 8 Sudoeste 17 Sudoeste 0 1014.6 -0.4 59
2018-11-06 12:00:00 15.7 4 Sur 13 Sur 0 1015.1 0.5 67
2018-11-06 11:00:00 14 3 Sudeste 9 Sudoeste 0 1015.4 1.6 72
2018-11-06 10:00:00 11.9 3 Sur 8 Sur 0 1015 1.7 82
2018-11-06 09:00:00 8.7 0 Calma 8 Sur 0 1014.6 1.7 94
2018-11-06 08:00:00 6.6 0 Calma -- -- 0 1013.8 1.1 95
2018-11-06 07:00:00 6.6 6 Sudeste 8 Sudeste 0 1013.3 1.2 94
2018-11-06 06:00:00 7 0 Calma 4 Noroeste 0 1012.9 0.7 92
2018-11-06 05:00:00 7.5 2 Noroeste 5 Noroeste 0 1012.7 0.8 92
2018-11-06 04:00:00 9.1 4 Oeste 9 Oeste 0 1012.1 0.2 88
2018-11-06 03:00:00 8.4 8 Oeste -- -- 0 1012.2 0.7 90
2018-11-06 02:00:00 9.1 7 Noroeste 9 Noroeste 0 1011.9 0.5 88
2018-11-06 01:00:00 10.5 7 Sudoeste 11 Sudoeste 0 1011.9 1.2 80
2018-11-06 00:00:00 10.8 9 Oeste 13 Oeste 0 1011.5 1.4 77
2018-11-05 23:00:00 11.2 9 Oeste 21 Oeste 0 1011.4 1.9 74
2018-11-05 22:00:00 12.2 13 Oeste 18 Oeste 0 1010.7 2.2 70
2018-11-05 21:00:00 12.8 10 Oeste 15 Oeste 0 1010.1 2.6 69
2018-11-05 20:00:00 12.6 9 Oeste 17 Oeste 0 1009.5 2.7 71
2018-11-05 19:00:00 14.8 13 Oeste 35 Noroeste 0 1008.5 2.5 63
2018-11-05 18:00:00 16.4 27 Oeste 35 Noroeste 0 1007.5 1.6 53
2018-11-05 17:00:00 18 26 Oeste 41 Oeste 0 1006.8 0.6 47
2018-11-05 16:00:00 18.3 28 Oeste 41 Oeste 0 1006 -0.6 45
2018-11-05 15:00:00 17.4 27 Oeste 37 Oeste 0 1005.9 -0.6 49
2018-11-05 14:00:00 15.9 20 Oeste 33 Oeste 0 1006.2 -0.1 57
2018-11-05 13:00:00 16.8 22 Oeste 41 Oeste 0 1006.6 0.7 55
2018-11-05 12:00:00 16 26 Oeste 35 Oeste 0 1006.5 1.4 56
2018-11-05 11:00:00 14.9 15 Oeste 26 Oeste 0 1006.3 1.9 67
2018-11-05 10:00:00 14.3 12 Oeste 21 Oeste 0 1005.9 2.4 76
2018-11-05 09:00:00 12.7 13 Sudoeste 18 Sudoeste 0 1005.1 1.9 90
2018-11-05 08:00:00 12.4 14 Sudoeste 18 Sudoeste 0 1004.4 2.2 93
2018-11-05 07:00:00 12.9 14 Sudoeste 21 Oeste 0 1003.5 1.7 88
2018-11-05 06:00:00 13.2 17 Oeste 28 Oeste 0.3 1003.2 1.5 89
2018-11-05 05:00:00 13.8 17 Oeste 37 Oeste 1.6 1002.2 -1.2 94
2018-11-05 04:00:00 14.3 35 Oeste 50 Oeste 5 1001.8 -2.9 93
2018-11-05 03:00:00 14.5 20 Sur 42 Sudoeste 0 1001.7 -3.8 93
2018-11-05 02:00:00 15.2 25 Sudoeste 42 Sudoeste 0.2 1003.4 -3.1 87
2018-11-05 01:00:00 15.7 13 Sudoeste 26 Sur 0 1004.7 -2.6 82
2018-11-05 00:00:00 15.2 13 Sur 21 Sur 0 1005.5 -2.2 84
2018-11-04 23:00:00 15.2 8 Sur 18 Sudoeste 0 1006.5 -1.7 84
2018-11-04 22:00:00 15 12 Sudoeste 21 Sudoeste 0 1007.3 -1.2 87
2018-11-04 21:00:00 15.4 12 Sudoeste 21 Sur 0 1007.7 -0.7 84
2018-11-04 20:00:00 15.4 9 Sudoeste 18 Sudoeste 0 1008.2 -0.9 89
2018-11-04 19:00:00 15.6 9 Sudoeste 18 Sur 0 1008.5 -0.9 88
2018-11-04 18:00:00 15.8 10 Sur 18 Sudoeste 0 1008.4 -1.7 86
2018-11-04 17:00:00 15.8 13 Sudoeste 18 Sur 0 1009.1 -2.2 85
2018-11-04 16:00:00 16.1 13 Sur 18 Sur 0 1009.4 -2.9 83
2018-11-04 15:00:00 15.7 11 Sur 18 Sur 0 1010.1 -3 85
2018-11-04 14:00:00 14.5 6 Sur 13 Sudoeste 0 1011.3 -2.7 91
2018-11-04 13:00:00 13.4 0 Calma 11 Sudoeste 0 1012.3 -1.8 97
2018-11-04 12:00:00 12.9 6 Sudoeste 11 Oeste 0 1013.1 -0.5 97
2018-11-04 11:00:00 12.4 6 Sudoeste 11 Sudoeste 0 1014 0.7 97
2018-11-04 10:00:00 11.9 0 Calma 8 Sur 0 1014.1 0.9 97
2018-11-04 09:00:00 11.2 5 Sur 9 Sur 0 1013.6 0.7 97
2018-11-04 08:00:00 10.4 3 Norte 5 Norte 0 1013.3 0.2 97
2018-11-04 07:00:00 9.6 0 Calma 4 Nordeste 0 1013.2 -0.1 96
2018-11-04 06:00:00 10.1 2 Este 5 Este 0 1012.9 -0.8 96
2018-11-04 05:00:00 10.3 0 Calma 4 Oeste 0 1013.1 -1.1 96
2018-11-04 04:00:00 10.8 4 Oeste 5 Oeste 0 1013.3 -1.5 95
2018-11-04 03:00:00 11.8 0 Calma 5 Nordeste 0 1013.7 -1.6 95
2018-11-04 02:00:00 12 0 Calma 5 Este 0 1014.2 -1.5 95
2018-11-04 01:00:00 12.1 4 Este 8 Este 0 1014.8 -0.8 95
2018-11-04 00:00:00 12.4 5 Este 8 Este 0 1015.3 -0.2 94
2018-11-03 23:00:00 13.4 0 Calma 4 Sudeste 0 1015.7 0.1 92
2018-11-03 22:00:00 13.8 3 Oeste 11 Sudeste 0 1015.6 0.1 92
2018-11-03 21:00:00 14.6 5 Sudeste 11 Sudeste 0 1015.5 0.2 86
2018-11-03 20:00:00 15.4 0 Calma 9 Sudeste 0 1015.6 0.2 86
2018-11-03 19:00:00 17.9 0 Calma 4 Sur 0 1015.5 -0.6 74
2018-11-03 18:00:00 20.2 2 Sudeste 11 Nordeste 0 1015.3 -1.5 63
2018-11-03 17:00:00 20.3 0 Calma 9 Nordeste 0 1015.4 -2 63
2018-11-03 16:00:00 19.4 7 Nordeste 17 Nordeste 0 1016.1 -2.3 66
2018-11-03 15:00:00 18.5 11 Nordeste 18 Nordeste 0 1016.8 -2.3 72
2018-11-03 14:00:00 17.3 13 Nordeste 22 Nordeste 0 1017.4 -1.8 76
2018-11-03 13:00:00 16 12 Nordeste 22 Nordeste 0 1018.4 -0.9 82
2018-11-03 12:00:00 15.8 13 Nordeste 24 Este 0 1019.1 -0.1 83
2018-11-03 11:00:00 15.9 14 Este 21 Este 0 1019.2 0.5 82
2018-11-03 10:00:00 14.3 10 Nordeste 13 Nordeste 0 1019.3 0.5 94
2018-11-03 09:00:00 12 6 Norte 11 Norte 0 1019.2 0.4 97
2018-11-03 08:00:00 10.8 4 Norte 11 Nordeste 0 1018.7 0 97
2018-11-03 07:00:00 11.2 10 Nordeste 13 Nordeste 0 1018.8 -0.2 97
2018-11-03 06:00:00 11.6 13 Nordeste 15 Nordeste 0 1018.8 -0.5 97
2018-11-03 05:00:00 11.6 11 Norte 11 Norte 0 1018.7 -1 96
2018-11-03 04:00:00 11.7 2 Oeste 9 Este 0 1019 -1.1 96
2018-11-03 03:00:00 12.4 7 Este 15 Nordeste 0 1019.3 -1.1 96
2018-11-03 02:00:00 12.5 8 Nordeste 13 Nordeste 0 1019.7 -0.9 96
2018-11-03 01:00:00 12.9 8 Nordeste -- -- 0 1020.1 -0.2 95
2018-11-03 00:00:00 13.8 4 Norte 8 Norte 0 1020.4 0.2 94
2018-11-02 23:00:00 14.4 0 Calma 5 Norte 0 1020.6 0.6 90
2018-11-02 22:00:00 15.1 0 Calma 11 Oeste 0 1020.3 0.7 87
2018-11-02 21:00:00 -- 9 Oeste 17 Oeste 0 1020.2 0.8 --
2018-11-02 20:00:00 16.5 10 Oeste 15 Oeste 0 1020 0.3 83
2018-11-02 19:00:00 18.1 4 Sudoeste 13 Oeste 0 1019.6 -0.1 77
2018-11-02 18:00:00 18.6 11 Sudoeste 15 Sudoeste 0 1019.4 -0.5 74
2018-11-02 17:00:00 18.9 11 Sudoeste 15 Sudoeste 0 1019.7 -0.6 71
2018-11-02 16:00:00 19.3 13 Sudoeste 21 Sur 0 1019.7 -1.2 67
2018-11-02 15:00:00 20 10 Sudoeste 21 Sudoeste 0 1019.9 -1.9 64
2018-11-02 14:00:00 19.2 9 Sudoeste 17 Sur 0 1020.3 -1.5 64
2018-11-02 13:00:00 17.9 9 Sudoeste 17 Sudoeste 0 1020.9 -0.7 68
2018-11-02 12:00:00 15.7 6 Sudoeste 11 Sudoeste 0 1021.8 0.6 74
2018-11-02 11:00:00 13.8 5 Sudoeste 9 Oeste 0 1021.8 1.1 80
2018-11-02 10:00:00 12.3 4 Sudeste 8 Sudeste 0 1021.6 1.1 87
2018-11-02 09:00:00 10.5 3 Sudeste 5 Sudeste 0 1021.2 1.2 94
2018-11-02 08:00:00 9.1 5 Sur 5 Sudeste 0 1020.7 0.8 95
2018-11-02 07:00:00 8.7 3 Sur 8 Sur 0 1020.5 0.7 95
2018-11-02 06:00:00 8.9 0 Calma 5 Sudeste 0 1020 0.2 94
2018-11-02 05:00:00 9.4 2 Sudeste 8 Sur 0 1019.9 0 92
2018-11-02 04:00:00 9.5 0 Calma 8 Sudeste 0 1019.8 -0.2 91
2018-11-02 03:00:00 9.9 4 Oeste 9 Oeste 0 1019.8 0.1 90
2018-11-02 02:00:00 9.7 3 Sudoeste 5 Sur 0 1019.9 0.5 92
2018-11-02 01:00:00 10.4 0 Calma 9 Oeste 0 1020 0.9 88
2018-11-02 00:00:00 11.9 4 Oeste 5 Oeste 0 1019.7 1.4 82
2018-11-01 23:00:00 11.8 0 Calma 13 Noroeste 0 1019.4 1.8 84
2018-11-01 22:00:00 12.4 11 Noroeste 13 Noroeste 0 1019.1 2.7 89
2018-11-01 21:00:00 12.9 4 Oeste 9 Oeste 0 1018.3 2.5 86
2018-11-01 20:00:00 13.9 4 Sudeste 15 Sur 0 1017.6 2.4 81
2018-11-01 19:00:00 16 10 Sur 15 Sur 0 1016.4 1.4 68
2018-11-01 18:00:00 18.3 10 Sudoeste 18 Sudoeste 0 1015.8 1.3 56
2018-11-01 17:00:00 19.3 12 Sudoeste 18 Sudoeste 0 1015.2 0.4 50
2018-11-01 16:00:00 19.4 8 Sudoeste 15 Sudoeste 0 1015 -0.1 47
2018-11-01 15:00:00 18.8 6 Sudoeste 13 Sudoeste 0 1014.5 -0.8 50
2018-11-01 14:00:00 18.1 4 Noroeste 13 Oeste 0 1014.8 0 55
2018-11-01 13:00:00 16.6 6 Noroeste 13 Norte 0 1015.1 1 60
2018-11-01 12:00:00 15.5 3 Norte 15 Norte 0 1015.3 2.2 65
2018-11-01 11:00:00 13.8 3 Norte 11 Nordeste 0 1014.8 3.1 72
2018-11-01 10:00:00 12.4 0 Calma 5 Oeste 0 1014.1 3.5 83
2018-11-01 09:00:00 9.2 3 Noroeste 11 Norte 0 1013.1 3.4 97
2018-11-01 08:00:00 6.5 0 Calma 8 Sudeste 0 1011.7 3.3 97
2018-11-01 07:00:00 7.1 0 Calma 9 Noroeste 0 1010.6 2.5 97
2018-11-01 06:00:00 7.2 0 Calma 4 Este 0 1009.7 2.5 96
2018-11-01 05:00:00 8 0 Calma 5 Noroeste 0 1008.4 1.4 97
2018-11-01 04:00:00 8.2 4 Noroeste 5 Noroeste 0 1008.1 1.9 96
2018-11-01 03:00:00 8.7 0 Calma -- -- 0 1007.2 1.6 95
2018-11-01 02:00:00 9.3 5 Norte 8 Norte 0 1007 2.2 95
2018-11-01 01:00:00 10.1 3 Noroeste 9 Norte 0 1006.2 2.7 92
2018-11-01 00:00:00 10.8 7 Norte 15 Nordeste 0 1005.6 3.1 91
2018-10-31 23:00:00 11.2 11 Norte 21 Norte 0 1004.8 3.3 92
2018-10-31 22:00:00 11.2 14 Nordeste 24 Nordeste 0 1003.5 2.9 92
2018-10-31 21:00:00 11.2 17 Nordeste 26 Este 0.8 1002.5 2.1 92
2018-10-31 20:00:00 11.2 14 Nordeste 33 Nordeste 0.3 1001.5 -0.1 93
2018-10-31 19:00:00 11 22 Nordeste 32 Nordeste 0 1000.6 -1.8 92
2018-10-31 18:00:00 11.1 16 Este 28 Este 2.9 1000.4 -2.8 94
2018-10-31 17:00:00 11.2 12 Sudeste 21 Sur 5.4 1001.6 -2.3 93
2018-10-31 16:00:00 11.7 15 Sur 28 Sur 1 1002.4 -2.3 88
2018-10-31 15:00:00 13.2 14 Sur 24 Sudoeste 0 1003.2 -2.5 73
2018-10-31 14:00:00 13.5 18 Sudoeste 30 Sudoeste 0 1003.9 -2.5 77
2018-10-31 13:00:00 14.1 15 Sudoeste 26 Sudoeste 0 1004.7 -1.3 68
2018-10-31 12:00:00 12.9 13 Sudoeste 21 Sudoeste 0 1005.7 0.3 74
2018-10-31 11:00:00 12.4 13 Sudoeste 21 Oeste 0 1006.4 1.3 75
2018-10-31 10:00:00 11.2 14 Sudoeste 18 Sudoeste 0 1006 0.9 79
2018-10-31 09:00:00 10.4 12 Sudoeste 17 Sudoeste 0 1005.4 0.4 81
2018-10-31 08:00:00 8.8 15 Sudoeste 22 Oeste 0 1005.1 0.6 86
2018-10-31 07:00:00 8.6 11 Oeste 17 Oeste 0 1005.1 0.8 87
2018-10-31 06:00:00 8.7 13 Oeste 24 Oeste 0 1005 0.9 85
2018-10-31 05:00:00 9.5 15 Oeste 30 Oeste 0 1004.5 0.3 82
2018-10-31 04:00:00 9.5 18 Oeste 32 Oeste 0 1004.3 0.4 81
2018-10-31 03:00:00 9.4 18 Oeste 26 Oeste 0 1004.1 0.7 81
2018-10-31 02:00:00 9.6 16 Oeste 24 Oeste 0 1004.2 1.3 81
2018-10-31 01:00:00 9.9 12 Oeste 28 Oeste 0 1003.9 1.8 78
2018-10-31 00:00:00 10.2 13 Oeste 33 Sudoeste 0 1003.4 2.1 77
2018-10-30 23:00:00 10.5 18 Oeste 32 Oeste 0 1002.9 2.8 73
2018-10-30 22:00:00 11.3 18 Oeste 28 Oeste 0 1002.1 3.2 71
2018-10-30 21:00:00 12 15 Oeste 30 Oeste 0 1001.3 3.3 72
2018-10-30 20:00:00 11.9 19 Oeste 35 Oeste 0 1000.1 2.8 74
2018-10-30 19:00:00 12.3 23 Oeste 45 Oeste 0 998.9 2.2 71
2018-10-30 18:00:00 15.4 29 Oeste 42 Oeste 0 998 1.2 62
2018-10-30 17:00:00 16.7 28 Oeste 41 Noroeste 0 997.3 0.2 60
2018-10-30 16:00:00 16.1 21 Oeste 28 Oeste 0 996.7 -0.7 74
2018-10-30 15:00:00 14.8 11 Oeste 30 Oeste 0.1 996.8 -1.6 89
2018-10-30 14:00:00 14.2 14 Sudoeste 26 Sudoeste 0.6 997.1 -1.4 93
2018-10-30 13:00:00 13.7 10 Sur 28 Sur 1 997.4 -1.8 94
2018-10-30 12:00:00 13 12 Sudoeste 21 Sur 0.5 998.4 -0.8 93
2018-10-30 11:00:00 12.2 11 Sur 24 Sur 2.1 998.5 0.3 95
2018-10-30 10:00:00 12.4 14 Sur 33 Oeste 3.3 999.2 -0.7 93
2018-10-30 09:00:00 13.7 27 Oeste 82 Sur 3 999.2 -2.4 91
2018-10-30 08:00:00 13.2 23 Sur 39 Sur 4.5 998.2 -4.5 96
2018-10-30 07:00:00 12.5 18 Sur 28 Sur 1.9 999.9 -3.9 96
2018-10-30 06:00:00 11.9 15 Sur 21 Sur 1.6 1001.6 -3.4 95
2018-10-30 05:00:00 11.3 11 Sur 21 Sur 2.7 1002.7 -2.6 93
2018-10-30 04:00:00 10.7 10 Sur 17 Sudeste 0.8 1003.8 -2.4 92
2018-10-30 03:00:00 11 10 Sur 15 Sur 0.9 1005 -2 82
2018-10-30 02:00:00 12.5 10 Sur -- -- -- 1005.3 -2.2 65
2018-10-30 01:00:00 13.3 10 Sudoeste 15 Sudoeste 0 1006.2 -1.4 59
2018-10-30 00:00:00 13.3 11 Sudoeste 28 Oeste 0 1007 -0.7 57
2018-10-29 23:00:00 13 16 Oeste 24 Oeste 0 1007.5 0.3 56
2018-10-29 22:00:00 13.7 21 Oeste 30 Oeste 0 1007.6 0.7 50
2018-10-29 21:00:00 13.6 18 Oeste 33 Oeste 0 1007.7 1.1 50
2018-10-29 20:00:00 14.4 24 Oeste 33 Oeste 0 1007.2 1.2 46
2018-10-29 19:00:00 14.7 19 Oeste 35 Oeste 0 1006.9 1 46
2018-10-29 18:00:00 16.4 30 Oeste 45 Oeste 0 1006.6 0.6 34
2018-10-29 17:00:00 17.6 30 Oeste 48 Oeste 0 1006 -0.4 28
2018-10-29 16:00:00 17.7 36 Noroeste 50 Noroeste 0 1005.9 -1.7 26
2018-10-29 15:00:00 17.9 29 Oeste 42 Oeste 0 1006 -2.1 26
2018-10-29 14:00:00 16.2 21 Sudoeste 33 Oeste 0 1006.4 -1.8 41
2018-10-29 13:00:00 15.1 17 Sudoeste 28 Sudoeste 0 1007.6 -0.6 44
2018-10-29 12:00:00 14.2 14 Oeste 24 Oeste 0 1008.1 0.2 42
2018-10-29 11:00:00 12.3 12 Oeste 24 Oeste 0 1008.2 1 50
2018-10-29 10:00:00 10.3 12 Oeste 21 Oeste 0 1008.2 1.4 64
2018-10-29 09:00:00 8.4 14 Oeste 22 Oeste 0 1007.9 1.5 75
2018-10-29 08:00:00 6.9 15 Noroeste 24 Noroeste 0 1007.2 1.2 81
2018-10-29 07:00:00 6.1 11 Oeste 17 Oeste 0 1006.8 0.9 82
2018-10-29 06:00:00 6.4 10 Oeste 13 Oeste 0 1006.4 0.3 80
2018-10-29 05:00:00 7.1 9 Noroeste 18 Noroeste 0 1006 0 77
2018-10-29 04:00:00 7.3 11 Noroeste 13 Oeste 0 1005.9 0 76
2018-10-29 03:00:00 8.3 5 Noroeste 21 Oeste 0 1006.1 0.8 69
2018-10-29 02:00:00 7.8 12 Oeste 21 Noroeste 0 1006 1.1 70
2018-10-29 01:00:00 8.5 12 Noroeste 17 Noroeste 0 1005.9 1.3 68
2018-10-29 00:00:00 10.1 13 Noroeste 22 Noroeste 0 1005.3 1.2 58
2018-10-28 23:00:00 10.3 15 Oeste 21 Oeste 0 1004.9 1.5 57
2018-10-28 22:00:00 11 12 Noroeste 22 Noroeste 0 1004.6 1.8 55
2018-10-28 21:00:00 12 13 Noroeste 21 Noroeste 0 1004.1 1.9 51
2018-10-28 20:00:00 12.8 14 Noroeste 18 Norte 0 1003.4 2.1 45
2018-10-28 19:00:00 13.8 10 Norte 28 Norte 0 1002.8 2.1 43
2018-10-28 18:00:00 14.8 24 Norte 37 Norte 0 1002.2 1.8 37
2018-10-28 17:00:00 16 23 Norte 42 Norte 0 1001.3 0.8 33
2018-10-28 16:00:00 15.1 16 Norte 32 Norte 0 1000.7 0.2 39
2018-10-28 15:00:00 15.5 24 Norte 37 Norte 0 1000.4 -0.7 37
2018-10-28 14:00:00 14.4 16 Norte 30 Norte 0 1000.5 -0.6 43
2018-10-28 13:00:00 14.3 13 Nordeste 33 Norte 0 1000.5 -0.5 47
2018-10-28 12:00:00 13.3 21 Norte 30 Norte 0 1001.1 0.2 46
2018-10-28 11:00:00 12.7 11 Norte 22 Noroeste 0 1001.1 0.6 50
2018-10-28 10:00:00 11.3 11 Norte 26 Norte 0 1001 0.4 57
2018-10-28 09:00:00 10 10 Noroeste 15 Noroeste 0 1000.9 -0.2 71
2018-10-28 08:00:00 8.2 12 Noroeste 18 Noroeste 0 1000.5 -0.4 84
2018-10-28 07:00:00 9 13 Noroeste 18 Noroeste 0 1000.6 -0.1 79
2018-10-28 06:00:00 9.4 10 Oeste 21 Oeste 0 1001.1 0 77
2018-10-28 05:00:00 9.8 14 Oeste 21 Oeste 0 1000.9 -0.5 76
2018-10-28 04:00:00 10.3 16 Noroeste 30 Oeste 0 1000.7 -0.9 70
2018-10-28 03:00:00 11.4 19 Noroeste 30 Noroeste 0 1001.1 -1 64
2018-10-28 02:00:00 12 18 Oeste -- -- -- 1001.4 -0.8 63
2018-10-28 01:00:00 13.5 15 Noroeste 30 Noroeste 0 1002.1 -0.2 57
2018-10-28 00:00:00 14.3 20 Noroeste 41 Noroeste 0 1002.2 0.1 54
2018-10-27 23:00:00 15.5 27 Noroeste 41 Noroeste 0 1002.3 1.1 49
2018-10-27 22:00:00 16.6 22 Norte 35 Norte 0 1002.3 1.3 40
2018-10-27 21:00:00 17.4 23 Norte 41 Norte 0 1002.1 0.9 50
2018-10-27 20:00:00 18.2 19 Oeste 26 Noroeste 0 1001.2 -0.4 61
2018-10-27 19:00:00 19.1 22 Noroeste 37 Noroeste 0 1001 -1 54
2018-10-27 18:00:00 20.6 28 Noroeste 42 Oeste 0 1001.2 -1.8 44
2018-10-27 17:00:00 20.8 31 Oeste 45 Oeste 0 1001.6 -2.6 53
2018-10-27 16:00:00 21.4 27 Oeste 39 Oeste 0 1002 -3.5 62
2018-10-27 15:00:00 21.2 24 Oeste 35 Oeste 0 1003 -3 66
2018-10-27 14:00:00 20.7 14 Oeste 28 Oeste 0 1004.2 -2.3 71
2018-10-27 13:00:00 20.2 10 Sudoeste 21 Sudoeste 0 1005.5 -1.2 76
2018-10-27 12:00:00 18.8 13 Sudoeste 21 Sudoeste 0 1006 -0.8 85
2018-10-27 11:00:00 17.8 12 Sur 17 Sudoeste 0 1006.5 -0.3 91
2018-10-27 10:00:00 16.8 6 Sudoeste 11 Sudoeste 0 1006.7 -0.4 96
2018-10-27 09:00:00 15.9 5 Sudoeste 8 Sudoeste 0 1006.8 -0.3 96
2018-10-27 08:00:00 16.2 4 Oeste 11 Sudoeste 0 1006.8 -0.7 96
2018-10-27 07:00:00 16.2 7 Sudoeste 11 Sudoeste 0 1007.1 -0.7 96
2018-10-27 06:00:00 16 7 Sudoeste 15 Sudoeste 0 1007.1 -1.3 96
2018-10-27 05:00:00 16 7 Sudoeste 13 Sudoeste 0.2 1007.5 -1.4 97
2018-10-27 04:00:00 15.9 4 Sudeste 5 Sudeste 0 1007.8 -1.8 96
2018-10-27 03:00:00 15.9 0 Calma -- -- -- 1008.4 -1.4 97
2018-10-27 02:00:00 15.8 0 Calma 8 Oeste 0 1008.9 -0.7 96
2018-10-27 01:00:00 15.9 5 Oeste 8 Oeste 0 1009.6 0 95
2018-10-27 00:00:00 16 0 Calma 5 Norte 0 1009.8 0.1 95
2018-10-26 23:00:00 16.1 5 Noroeste 9 Este 0 1009.6 0.1 95
2018-10-26 22:00:00 16 6 Nordeste 15 Este 0 1009.6 0.1 96
2018-10-26 21:00:00 16.2 6 Nordeste 15 Nordeste 0 1009.7 -0.1 95
2018-10-26 20:00:00 16.2 10 Nordeste 15 Nordeste 0 1009.5 -0.5 95
2018-10-26 19:00:00 16.2 10 Norte 18 Nordeste 0.1 1009.5 -0.6 96
2018-10-26 18:00:00 16 14 Nordeste 21 Nordeste 0.9 1009.8 -0.7 96
2018-10-26 17:00:00 16.4 12 Nordeste 17 Nordeste 3.6 1010 -1.9 97
2018-10-26 16:00:00 16.8 11 Nordeste 26 Este 0.1 1010.1 -2.7 94
2018-10-26 15:00:00 16.6 14 Nordeste 21 Nordeste 0.4 1010.5 -2 92
2018-10-26 14:00:00 17.2 10 Este 13 Este 2.3 1011.9 -0.4 93
2018-10-26 13:00:00 17.9 7 Sur 11 Sudeste 0.8 1012.8 0.8 90
2018-10-26 12:00:00 17.6 6 Este 9 Este 0.3 1012.5 0.3 89
2018-10-26 11:00:00 17.1 6 Este 13 Nordeste 0 1012.3 0.7 91
2018-10-26 10:00:00 16.7 7 Nordeste 9 Nordeste 0.8 1012 0.6 91
2018-10-26 09:00:00 16.5 2 Sudeste 5 Norte 0.8 1012.2 1 92
2018-10-26 08:00:00 16.3 2 Nordeste 11 Norte 0.3 1011.6 0.1 92
2018-10-26 07:00:00 16.5 9 Norte 15 Norte 0.2 1011.4 0.1 89
2018-10-26 06:00:00 16.4 5 Norte 15 Noroeste 0.1 1011.2 -0.9 92
2018-10-26 05:00:00 16.8 10 Oeste 13 Oeste 0 1011.5 -0.7 91
2018-10-26 04:00:00 16.7 6 Nordeste 9 Nordeste 0 1011.3 -1.5 87
2018-10-26 03:00:00 16.8 0 Calma -- -- -- 1012.1 -0.7 89
2018-10-26 02:00:00 16.8 6 Este 8 Este 0 1012.2 -0.7 89
2018-10-26 01:00:00 17.2 4 Sudeste 5 Sudeste 0 1012.8 0.1 88
2018-10-26 00:00:00 18.4 3 Sudeste 8 Sur 0 1012.8 0.1 81
2018-10-25 23:00:00 18.4 3 Sudoeste 9 Sudoeste 0 1012.9 0.2 83
2018-10-25 22:00:00 20.1 3 Sudeste 9 Norte 0 1012.7 0.1 75
2018-10-25 21:00:00 22 4 Norte 13 Norte 0 1012.7 0.2 65
2018-10-25 20:00:00 23.1 4 Noroeste 11 Oeste 0 1012.7 -0.2 57
2018-10-25 19:00:00 25.5 4 Sudoeste 8 Oeste 0 1012.6 -0.6 41
2018-10-25 18:00:00 26.7 0 Calma 8 Nordeste 0 1012.5 -1.4 36
2018-10-25 17:00:00 26.6 6 Sudeste 11 Sudeste 0 1012.9 -1.7 36
2018-10-25 16:00:00 26.4 3 Sur 13 Este 0 1013.2 -2 37
2018-10-25 15:00:00 26.2 6 Sudeste 17 Nordeste 0 1013.9 -2 48
2018-10-25 14:00:00 24.4 9 Nordeste 21 Nordeste 0 1014.6 -1.5 59
2018-10-25 13:00:00 23 10 Este 18 Este 0 1015.2 -0.8 64
2018-10-25 12:00:00 20.8 12 Nordeste 22 Nordeste 0 1015.9 0.5 73
2018-10-25 11:00:00 18 12 Nordeste 21 Este 0 1016.1 1 84
2018-10-25 10:00:00 16.4 11 Nordeste 17 Nordeste 0 1016 0.7 93
2018-10-25 09:00:00 14.6 11 Nordeste 13 Nordeste 0 1015.4 -0.1 96
2018-10-25 08:00:00 14.9 10 Nordeste 13 Nordeste 0 1015.1 -0.5 96
2018-10-25 07:00:00 15.4 6 Nordeste 13 Nordeste 0 1015.3 -0.6 95
2018-10-25 06:00:00 15.5 5 Nordeste -- -- 0 1015.5 -1 94
2018-10-25 05:00:00 15.7 4 Sudeste 9 Nordeste 0 1015.6 -1.1 91
2018-10-25 04:00:00 15.8 3 Nordeste 8 Nordeste 0 1015.9 -1.1 93
2018-10-25 03:00:00 16.4 3 Nordeste -- -- -- 1016.5 -0.6 92
2018-10-25 02:00:00 17.4 0 Calma 8 Oeste 0 1016.7 -0.5 88
2018-10-25 01:00:00 17.8 4 Sur 9 Sur 0 1017 0 88
2018-10-25 00:00:00 17.9 2 Sudeste -- -- 0 1017.1 0.1 88
2018-10-24 23:00:00 18.6 5 Este 9 Este 0 1017.2 0.2 86
2018-10-24 22:00:00 -- -- -- -- -- 0 1017 -0.1 --
2018-10-24 21:00:00 21.7 2 Nordeste 9 Norte 0 1017 -0.3 71
2018-10-24 20:00:00 23.9 4 Nordeste 15 Nordeste 0 1017 -0.7 55
2018-10-24 19:00:00 26 0 Calma 15 Este 0 1017.1 -1 47
2018-10-24 18:00:00 26.5 8 Nordeste 13 Nordeste 0 1017.3 -1.8 46
2018-10-24 17:00:00 26.7 9 Este 18 Nordeste 0 1017.7 -2.6 47
2018-10-24 16:00:00 26.6 8 Este 18 Este 0 1018.1 -2.9 48
2018-10-24 15:00:00 25.8 9 Este 22 Este 0 1019.1 -2.2 51
2018-10-24 14:00:00 24.9 14 Este 24 Este 0 1020.3 -1 55
2018-10-24 13:00:00 23.9 14 Este 22 Este 0 1021 -0.2 61
2018-10-24 12:00:00 22.1 12 Nordeste 18 Este -- 1021.3 0.5 71
2018-10-24 11:00:00 20.2 9 Nordeste 15 Este -- 1021.3 0.5 78
2018-10-24 10:00:00 17.5 9 Nordeste 13 Este 0 1021.2 0.4 90
2018-10-24 09:00:00 16 9 Nordeste 13 Nordeste 0 1020.8 0.1 94
2018-10-24 08:00:00 16 6 Norte 11 Norte 0 1020.8 0.3 94
2018-10-24 07:00:00 16.9 6 Nordeste 15 Nordeste 0 1020.8 0.2 91
2018-10-24 06:00:00 17.3 11 Nordeste 17 Nordeste 0 1020.7 -0.1 90
2018-10-24 05:00:00 17.1 9 Nordeste 15 Nordeste 0 1020.5 -0.5 91
2018-10-24 04:00:00 17 6 Nordeste 13 Nordeste 0 1020.6 -0.3 93
2018-10-24 03:00:00 17.7 3 Este -- -- -- 1020.8 -0.1 94
2018-10-24 02:00:00 18.4 7 Nordeste 9 Nordeste 0 1021 0.1 93
2018-10-24 01:00:00 19 9 Sudeste 11 Sudeste 0 1020.9 0.7 90
2018-10-24 00:00:00 20.5 2 Este 9 Norte 0 1020.9 0.9 82
2018-10-23 23:00:00 21.1 6 Nordeste 13 Norte 0 1020.9 1.3 79
2018-10-23 22:00:00 21.4 5 Este 9 Noroeste 0 1020.2 0.9 81
2018-10-23 21:00:00 22 0 Calma 8 Sudeste 0 1020 0.5 79
2018-10-23 20:00:00 22.8 4 Oeste 9 Noroeste 0 1019.6 0.2 67
2018-10-23 19:00:00 24.3 5 Noroeste 11 Nordeste 0 1019.3 0.1 60
2018-10-23 18:00:00 24.7 6 Norte 17 Nordeste 0 1019.5 -0.1 56
2018-10-23 17:00:00 24.8 7 Nordeste 24 Nordeste 0 1019.4 -0.5 57
2018-10-23 16:00:00 24.8 8 Norte 13 Norte 0 1019.2 -1 57
2018-10-23 15:00:00 24.7 6 Nordeste 17 Norte 0 1019.6 -1 59
2018-10-23 14:00:00 24.7 10 Norte 17 Nordeste 0 1019.9 -0.2 64
2018-10-23 13:00:00 23.2 7 Nordeste 17 Norte 0 1020.2 0.9 68
2018-10-23 12:00:00 20.9 3 Nordeste 22 Nordeste 0 1020.6 2.2 80
2018-10-23 11:00:00 19.4 9 Nordeste 15 Nordeste 0 1020.1 2.2 87
2018-10-23 10:00:00 17.8 9 Nordeste 15 Nordeste 0 1019.3 1.6 93
2018-10-23 09:00:00 16.7 7 Nordeste 13 Nordeste 0 1018.4 1.1 96
2018-10-23 08:00:00 16.8 10 Nordeste 17 Norte 0 1017.9 1.3 96
2018-10-23 07:00:00 17.1 6 Noroeste 11 Noroeste 0 1017.7 0.1 94
2018-10-23 06:00:00 17.7 0 Calma 8 Nordeste 0 1017.3 0 94
2018-10-23 05:00:00 17.8 5 Nordeste 8 Nordeste 0 1016.6 -0.5 95
2018-10-23 04:00:00 18.2 5 Oeste 8 Oeste 0 1017.6 0 92
2018-10-23 03:00:00 18.1 0 Calma 5 Norte 0 1017.3 0.2 93
2018-10-23 02:00:00 18.2 6 Sudeste 8 Sur 0 1017.1 0.4 93
2018-10-23 01:00:00 18.4 0 Calma 9 Sur 0 1017.6 1.4 92
2018-10-23 00:00:00 19 0 Calma 5 Nordeste 0 1017.1 1 91
2018-10-22 23:00:00 19.4 0 Calma 8 Este 0 1016.7 1.2 90
2018-10-22 22:00:00 19.6 6 Sudeste 9 Sudeste 0 1016.2 1.1 87
2018-10-22 21:00:00 20.9 5 Sudeste 15 Este 0 1016.1 1.1 83
2018-10-22 20:00:00 22.7 7 Este 17 Este 0 1015.5 0.5 73
2018-10-22 19:00:00 25.1 9 Nordeste 15 Nordeste 0 1015.1 0 57
2018-10-22 18:00:00 25.6 8 Nordeste 22 Nordeste 0 1015 -0.8 54
2018-10-22 17:00:00 26 10 Nordeste 18 Nordeste 0 1015 -1.6 52
2018-10-22 16:00:00 25.4 11 Norte 21 Nordeste 0 1015.1 -1.7 55
2018-10-22 15:00:00 24.9 8 Norte 18 Nordeste 0 1015.8 -1.1 56
2018-10-22 14:00:00 24.2 9 Nordeste 22 Nordeste 0 1016.6 -0.2 61
2018-10-22 13:00:00 23.2 14 Nordeste 21 Nordeste 0 1016.8 0.2 64
2018-10-22 12:00:00 22.3 14 Este 21 Este 0 1016.9 1 69
2018-10-22 11:00:00 19.6 16 Nordeste 21 Este 0 1016.8 0.9 79
2018-10-22 10:00:00 16.8 12 Nordeste 17 Nordeste 0 1016.6 0.7 93
2018-10-22 09:00:00 15.5 11 Nordeste 17 Nordeste 0 1015.9 0.4 96
2018-10-22 08:00:00 15.8 10 Nordeste -- -- -- 1015.9 0.4 95
2018-10-22 07:00:00 16.1 10 Nordeste 13 Nordeste 0 1015.9 0.1 95
2018-10-22 06:00:00 15.7 5 Norte 15 Nordeste 0 1015.5 -0.4 96
2018-10-22 05:00:00 15.7 11 Nordeste 15 Nordeste 0 1015.5 -0.4 95
2018-10-22 04:00:00 15.9 6 Norte 8 Norte 0 1015.8 -0.2 96
2018-10-22 03:00:00 16.3 6 Norte 11 Norte 0 1015.9 0 96
2018-10-22 02:00:00 16.4 7 Norte 9 Norte 0 1015.9 0.8 96
2018-10-22 01:00:00 16.7 5 Norte 9 Noroeste 0 1016 1.3 95
2018-10-22 00:00:00 17.2 2 Nordeste 9 Nordeste 0 1015.9 1.4 94
2018-10-21 23:00:00 17.7 3 Nordeste 8 Nordeste 0 1015.1 0.9 93
2018-10-21 22:00:00 18.2 4 Nordeste 11 Nordeste 0 1014.7 1.1 92
2018-10-21 21:00:00 18.9 10 Nordeste 15 Nordeste 0 1014.5 0.8 91
2018-10-21 20:00:00 20 10 Nordeste 13 Nordeste 0 1014.2 0.2 83
2018-10-21 19:00:00 22 5 Este 13 Sudeste 0 1013.6 -0.1 67
2018-10-21 18:00:00 23.1 11 Sudeste 24 Sudeste 0 1013.7 -0.6 59
2018-10-21 17:00:00 22.7 18 Sudeste 26 Sudeste 0 1014 -0.9 68
2018-10-21 16:00:00 21.7 7 Este 24 Sudeste 0 1013.7 -1.6 70
2018-10-21 15:00:00 21.7 16 Sudeste 30 Este 0 1014.3 -1.2 71
2018-10-21 14:00:00 19.8 18 Este 30 Sudeste 0 1014.9 0 84
2018-10-21 13:00:00 18.1 21 Este 35 Este 2.8 1015.3 1.3 90
2018-10-21 12:00:00 17.6 13 Este 37 Sudeste 0 1015.5 2 90
2018-10-21 11:00:00 17.2 10 Nordeste 21 Este 0 1014.9 1.9 92
2018-10-21 10:00:00 16.8 14 Este 26 Nordeste 0 1014 1.2 93
2018-10-21 09:00:00 16.5 19 Nordeste 24 Nordeste 0 1013.5 0.9 94
2018-10-21 08:00:00 16.3 11 Nordeste 18 Nordeste 1.4 1013 0.4 96
2018-10-21 07:00:00 16.3 15 Nordeste 21 Nordeste 0 1012.8 0.2 96
2018-10-21 06:00:00 15.9 10 Nordeste 13 Nordeste 0 1012.6 0.1 97
2018-10-21 05:00:00 15.7 8 Norte 13 Norte 0.1 1012.6 -0.1 97
2018-10-21 04:00:00 15.8 4 Norte 9 Norte 0.2 1012.6 -0.4 96
2018-10-21 03:00:00 16 6 Norte 8 Norte 0 1012.5 -0.3 96
2018-10-21 02:00:00 15.6 0 Calma 5 Norte 0 1012.7 0.2 95
2018-10-21 01:00:00 15.6 0 Calma 11 Este 0 1013 1.2 94
2018-10-21 00:00:00 15.7 8 Nordeste 17 Este 0.1 1012.8 0.9 93
2018-10-20 23:00:00 15.7 10 Nordeste 17 Nordeste 0 1012.5 0.7 91
2018-10-20 22:00:00 15.9 13 Este 30 Este 0.1 1011.8 -0.2 92
2018-10-20 21:00:00 15.6 20 Este 35 Nordeste 1.8 1011.9 0.6 95
2018-10-20 20:00:00 15.8 22 Nordeste 32 Nordeste 2.2 1011.8 -0.2 93
2018-10-20 19:00:00 15 11 Este 26 Norte 2.5 1012 0.9 94
2018-10-20 18:00:00 15.1 16 Noroeste 32 Noroeste 0.6 1011.3 -0.2 92
2018-10-20 17:00:00 16.3 15 Oeste 28 Sudoeste 0.8 1012 0.5 91
2018-10-20 16:00:00 16.3 7 Noroeste 13 Norte 1.4 1011.1 -1 87
2018-10-20 15:00:00 17.2 0 Calma 30 Nordeste 0.2 1011.5 -0.5 77
2018-10-20 14:00:00 17.4 14 Nordeste 22 Nordeste 0.4 1011.5 0.3 78
2018-10-20 13:00:00 16.5 10 Nordeste 26 Este 1.7 1012.1 1.3 83
2018-10-20 12:00:00 17.2 18 Este 33 Nordeste 0 1012 1.4 71
2018-10-20 11:00:00 17.2 21 Nordeste 30 Este 0 1011.2 0.8 73
2018-10-20 10:00:00 15.5 15 Nordeste 28 Este 0 1010.8 0.8 80
2018-10-20 09:00:00 14.3 17 Nordeste 24 Este 0 1010.6 0.7 86
2018-10-20 08:00:00 13.4 15 Nordeste 22 Nordeste 0 1010.4 0.4 88
2018-10-20 07:00:00 12.8 19 Nordeste 28 Nordeste 0 1010 -0.2 91
2018-10-20 06:00:00 13.9 15 Nordeste 21 Nordeste 0 1009.9 -0.2 86
2018-10-20 05:00:00 13.9 10 Nordeste 17 Este 0 1010 -0.2 85
2018-10-20 04:00:00 14 13 Este 17 Este 0 1010.2 0.1 84
2018-10-20 03:00:00 14.7 6 Nordeste 18 Este 0 1010.1 -0.2 81
2018-10-20 02:00:00 14.8 13 Nordeste 17 Nordeste 0 1010.2 -0.1 81
2018-10-20 01:00:00 14.4 12 Norte 15 Norte 0 1010.1 0.3 87
2018-10-20 00:00:00 15.3 12 Este 17 Este 0 1010.3 0.7 81
2018-10-19 23:00:00 15.2 10 Este 11 Este 0 1010.3 1.5 83
2018-10-19 22:00:00 16.3 10 Sudeste 11 Sudeste 0 1009.8 2.1 76
2018-10-19 21:00:00 17 8 Sudeste 17 Sudeste 0 1009.6 2.2 71
2018-10-19 20:00:00 18.6 10 Sudeste 21 Sudeste 0 1008.8 1.6 66
2018-10-19 19:00:00 20.8 13 Sudeste 32 Sudeste 0 1007.7 0.5 53
2018-10-19 18:00:00 22.7 16 Este 28 Este 0 1007.4 -0.2 43
2018-10-19 17:00:00 22.8 16 Este 28 Este 0 1007.2 -0.9 42
2018-10-19 16:00:00 22.5 15 Este 28 Este 0 1007.2 -1.1 45
2018-10-19 15:00:00 21 16 Nordeste 28 Este 0 1007.6 -0.6 54
2018-10-19 14:00:00 19.9 18 Nordeste 33 Nordeste 0 1008.1 -0.1 65
2018-10-19 13:00:00 18.6 18 Nordeste 30 Este 0 1008.3 0.6 65
2018-10-19 12:00:00 17.7 16 Nordeste 26 Nordeste 0 1008.2 0.9 70
2018-10-19 11:00:00 16.6 18 Este 30 Este 0 1008.2 1.3 73
2018-10-19 10:00:00 14.7 12 Nordeste 21 Nordeste 0 1007.7 1.1 86
2018-10-19 09:00:00 12.8 7 Nordeste 13 Nordeste 0 1007.3 0.8 95
2018-10-19 08:00:00 13.3 10 Nordeste 15 Nordeste 0 1006.9 0.5 93
2018-10-19 07:00:00 13.6 12 Nordeste 18 Este 0 1006.6 -0.5 91
2018-10-19 06:00:00 13.7 12 Nordeste 17 Nordeste 0 1006.5 -0.6 93
2018-10-19 05:00:00 14 9 Nordeste 13 Nordeste 0 1006.4 -0.6 90
2018-10-19 04:00:00 13.9 9 Nordeste 15 Nordeste 0 1007.1 -0.1 90
2018-10-19 03:00:00 13.8 8 Norte 13 Este 0 1007.1 -0.3 89
2018-10-19 02:00:00 14 8 Este 21 Este 0 1007 -0.4 87
2018-10-19 01:00:00 14.2 12 Nordeste 22 Nordeste 0 1007.2 0.5 87
2018-10-19 00:00:00 14.4 15 Este 28 Este 0 1007.4 1.1 87
2018-10-18 23:00:00 14.5 15 Nordeste 28 Nordeste 0 1007.4 1.7 88
2018-10-18 22:00:00 14.8 12 Nordeste 22 Nordeste 0 1006.7 1.8 88
2018-10-18 21:00:00 14.9 14 Nordeste 24 Este 0 1006.3 1.6 87
2018-10-18 20:00:00 15 14 Nordeste 26 Nordeste 0 1005.7 1.3 86
2018-10-18 19:00:00 15.3 16 Nordeste 26 Nordeste 0 1004.9 0.5 86
2018-10-18 18:00:00 15.7 17 Este 26 Este 0 1004.7 0.5 81
2018-10-18 17:00:00 15.5 19 Este 28 Este 0 1004.4 -0.2 80
2018-10-18 16:00:00 15.3 12 Este 24 Este 0 1004.4 -0.3 81
2018-10-18 15:00:00 14.9 14 Este 21 Este 0.7 1004.2 -0.2 87
2018-10-18 14:00:00 14.7 10 Este 21 Este 1.6 1004.6 0.1 91
2018-10-18 13:00:00 15.3 12 Este 21 Este 0.3 1004.7 0.1 88
2018-10-18 12:00:00 15.4 13 Nordeste 21 Nordeste 0 1004.4 0 83
2018-10-18 11:00:00 14.9 8 Nordeste 30 Norte 0.3 1004.5 1 86
2018-10-18 10:00:00 13.7 17 Norte 24 Norte 2.4 1004.6 1.1 94
2018-10-18 09:00:00 13.7 10 Noroeste 48 Oeste 3 1004.4 0.5 94
2018-10-18 08:00:00 14.6 40 Oeste 54 Oeste 2.3 1003.5 -1.1 91
2018-10-18 07:00:00 17.5 8 Sur 15 Sudoeste 0 1003.5 -2.3 92
2018-10-18 06:00:00 18 8 Sur 11 Sur 0 1003.9 -2.8 90
2018-10-18 05:00:00 18 5 Sur 13 Sur 0 1004.6 -2.7 90
2018-10-18 04:00:00 17.9 8 Sur 15 Sur 0 1005.8 -2.7 90
2018-10-18 03:00:00 17.9 5 Sur 18 Sur 0 1006.7 -2.4 89
2018-10-18 02:00:00 17.6 12 Sur 18 Sur 0 1007.3 -2.5 90
2018-10-18 01:00:00 18.1 12 Sur 18 Sur 0 1008.5 -1.3 89
2018-10-18 00:00:00 18.5 12 Sur 17 Sur 0 1009.1 -0.6 84